Time;durP1;ratioP1;P1;durP2;ratioP2;P2;SDS_P1;SDS_P2;PMS_P1;PMS_P2;Temp;Humidity;BMP_temperature;BMP_pressure;BME280_temperature;BME280_humidity;BME280_pressure;Samples;Min_cycle;Max_cycle;Signal;HPM_P1;HPM_P2
2023/03/08 00:01:26;;;;;;;3.27;2.97;;;4.50;99.90;;;;;;4982907;28;20491;-85
2023/03/08 00:03:55;;;;;;;4.20;2.80;;;4.40;99.90;;;;;;5038981;23;20523;-83
2023/03/08 00:06:24;;;;;;;3.37;2.60;;;4.40;99.90;;;;;;4957992;28;20490;-83
2023/03/08 00:08:55;;;;;;;6.80;3.50;;;4.40;99.90;;;;;;4963602;28;20456;-86
2023/03/08 00:11:22;;;;;;;3.43;3.00;;;4.30;99.90;;;;;;4977443;28;20480;-83
2023/03/08 00:13:51;;;;;;;6.30;3.10;;;4.30;99.90;;;;;;4971477;28;20492;-84
2023/03/08 00:16:18;;;;;;;5.00;3.40;;;4.30;99.90;;;;;;4981218;28;20464;-84
2023/03/08 00:18:45;;;;;;;4.30;3.40;;;4.20;99.90;;;;;;4953752;28;20459;-86
2023/03/08 00:21:14;;;;;;;5.60;3.43;;;4.20;99.90;;;;;;4966012;28;20556;-85
2023/03/08 00:23:44;;;;;;;4.70;4.00;;;4.20;99.90;;;;;;4978676;28;20439;-84
2023/03/08 00:26:17;;;;;;;9.40;5.30;;;4.20;99.90;;;;;;4970407;28;20531;-83
2023/03/08 00:28:47;;;;;;;4.70;4.00;;;4.30;99.90;;;;;;4962015;28;20470;-85
2023/03/08 00:31:14;;;;;;;5.63;4.00;;;4.20;99.90;;;;;;4958188;28;20453;-87
2023/03/08 00:33:44;;;;;;;6.20;4.80;;;4.30;99.90;;;;;;4957412;28;20472;-85
2023/03/08 00:36:16;;;;;;;5.43;3.90;;;4.30;99.90;;;;;;4966800;28;20462;-86
2023/03/08 00:38:49;;;;;;;5.50;3.87;;;4.30;99.90;;;;;;4952691;28;20460;-86
2023/03/08 00:41:17;;;;;;;6.57;4.07;;;4.40;99.90;;;;;;4956698;28;21032;-85
2023/03/08 00:43:47;;;;;;;7.87;3.70;;;4.40;99.90;;;;;;4953052;28;21775;-86
2023/03/08 00:46:17;;;;;;;4.63;4.10;;;4.40;99.90;;;;;;4960289;28;20542;-85
2023/03/08 00:48:44;;;;;;;6.03;4.87;;;4.30;99.90;;;;;;4970664;28;20465;-84
2023/03/08 00:51:13;;;;;;;6.23;4.87;;;4.30;99.90;;;;;;4951113;28;20459;-83
2023/03/08 00:53:41;;;;;;;6.27;4.30;;;4.40;99.90;;;;;;4954902;28;20472;-85
2023/03/08 00:56:11;;;;;;;4.43;3.80;;;4.30;99.90;;;;;;4959757;28;20459;-85
2023/03/08 00:58:40;;;;;;;5.37;3.77;;;4.50;99.90;;;;;;4967369;28;20452;-82
2023/03/08 01:01:17;;;;;;;7.40;4.40;;;4.50;99.90;;;;;;4950360;28;20474;-84
2023/03/08 01:03:48;;;;;;;5.17;3.73;;;4.50;99.90;;;;;;4966465;28;21019;-84
2023/03/08 01:06:22;;;;;;;3.90;3.50;;;4.50;99.90;;;;;;4961469;29;20472;-84
2023/03/08 01:08:52;;;;;;;6.60;4.17;;;4.20;99.90;;;;;;4975082;28;20718;-86
2023/03/08 01:11:25;;;;;;;11.57;4.73;;;4.30;99.90;;;;;;4956506;28;20528;-84
2023/03/08 01:13:53;;;;;;;6.30;3.70;;;4.30;99.90;;;;;;4967020;28;21001;-85
2023/03/08 01:16:29;;;;;;;5.00;4.30;;;4.30;99.90;;;;;;4975237;28;20570;-85
2023/03/08 01:18:57;;;;;;;5.30;4.60;;;4.40;99.90;;;;;;4951805;28;20484;-84
2023/03/08 01:21:25;;;;;;;7.83;4.90;;;4.40;99.90;;;;;;4950606;28;20496;-83
2023/03/08 01:23:52;;;;;;;6.43;4.70;;;4.40;99.90;;;;;;4950007;28;20457;-85
2023/03/08 01:26:22;;;;;;;4.83;4.30;;;4.30;99.90;;;;;;4974392;28;21109;-84
2023/03/08 01:28:50;;;;;;;6.23;4.50;;;4.20;99.90;;;;;;4970317;28;20516;-85
2023/03/08 01:31:22;;;;;;;5.30;4.80;;;4.10;99.90;;;;;;4978322;28;20456;-84
2023/03/08 01:33:49;;;;;;;6.97;4.80;;;4.10;99.90;;;;;;4956726;28;20491;-83
2023/03/08 01:36:19;;;;;;;5.83;4.07;;;4.10;99.90;;;;;;4954138;28;20456;-85
2023/03/08 01:38:46;;;;;;;5.67;4.17;;;4.10;99.90;;;;;;4967555;28;20452;-84
2023/03/08 01:41:17;;;;;;;3.73;3.10;;;3.90;99.90;;;;;;4975282;28;20462;-83
2023/03/08 01:43:44;;;;;;;5.00;3.90;;;4.00;99.90;;;;;;4952422;28;20964;-84
2023/03/08 01:46:30;;;;;;;3.93;3.53;;;4.10;99.90;;;;;;4961046;28;20487;-83
2023/03/08 01:49:14;;;;;;;4.93;3.70;;;4.20;99.90;;;;;;4975230;28;20471;-83
2023/03/08 01:52:18;;;;;;;6.77;3.73;;;4.20;99.90;;;;;;4943565;28;20456;-85
2023/03/08 01:54:51;;;;;;;4.60;3.03;;;3.90;99.90;;;;;;4964902;28;20647;-84
2023/03/08 01:57:36;;;;;;;3.90;3.30;;;4.20;99.90;;;;;;4974632;28;20469;-84
2023/03/08 02:00:17;;;;;;;4.30;3.63;;;4.20;99.90;;;;;;4959200;28;20475;-83
2023/03/08 02:02:50;;;;;;;5.13;4.00;;;4.20;99.90;;;;;;4957842;28;20459;-85
2023/03/08 02:05:18;;;;;;;5.37;3.83;;;4.30;99.90;;;;;;4957680;28;20541;-84
2023/03/08 02:07:45;;;;;;;7.33;5.17;;;4.30;99.90;;;;;;4952900;28;20524;-83
2023/03/08 02:10:13;;;;;;;6.20;4.40;;;4.20;99.90;;;;;;4968830;28;20452;-84
2023/03/08 02:12:40;;;;;;;8.87;5.03;;;4.10;99.90;;;;;;4955698;28;20896;-84
2023/03/08 02:15:09;;;;;;;5.33;4.43;;;4.00;99.90;;;;;;4964266;28;20456;-83
2023/03/08 02:17:38;;;;;;;5.80;3.43;;;3.90;99.90;;;;;;4943842;28;20512;-85
2023/03/08 02:20:14;;;;;;;4.73;3.63;;;3.90;99.90;;;;;;4953705;28;20495;-84
2023/03/08 02:22:42;;;;;;;5.90;4.23;;;3.90;99.90;;;;;;4955977;28;20463;-84
2023/03/08 02:25:13;;;;;;;6.63;3.90;;;3.80;99.90;;;;;;4942961;28;20457;-84
2023/03/08 02:27:43;;;;;;;6.27;3.60;;;3.70;99.90;;;;;;4953189;28;20484;-85
2023/03/08 02:30:14;;;;;;;4.77;3.50;;;3.60;99.90;;;;;;4980278;28;20452;-85
2023/03/08 02:32:40;;;;;;;7.10;4.30;;;3.70;99.90;;;;;;4992380;28;20450;-83
2023/03/08 02:35:10;;;;;;;8.40;4.17;;;3.70;99.90;;;;;;4985388;28;20441;-84
2023/03/08 02:37:37;;;;;;;6.73;3.80;;;3.80;99.90;;;;;;4982118;28;20519;-82
2023/03/08 02:40:05;;;;;;;6.10;4.70;;;3.70;99.90;;;;;;4974679;28;20444;-84
2023/03/08 02:42:35;;;;;;;5.90;4.40;;;3.80;99.90;;;;;;4983827;28;20507;-82
2023/03/08 02:45:02;;;;;;;6.67;4.80;;;4.00;99.90;;;;;;4990754;28;20467;-83
2023/03/08 02:47:29;;;;;;;7.10;4.90;;;3.90;99.90;;;;;;4982908;28;20548;-84
2023/03/08 02:49:57;;;;;;;7.20;4.93;;;4.00;99.90;;;;;;4965930;28;20443;-85
2023/03/08 02:52:24;;;;;;;7.73;4.93;;;3.90;99.90;;;;;;4966855;28;20457;-83
2023/03/08 02:54:52;;;;;;;5.93;4.43;;;3.80;99.90;;;;;;4977364;28;20461;-84
2023/03/08 02:57:22;;;;;;;10.20;5.03;;;3.70;99.90;;;;;;4967071;28;20475;-83
2023/03/08 02:59:49;;;;;;;9.90;5.03;;;3.70;99.90;;;;;;4970841;28;20459;-85
2023/03/08 03:02:16;;;;;;;5.50;4.63;;;3.80;99.90;;;;;;4957826;28;20500;-83
2023/03/08 03:04:47;;;;;;;6.63;5.43;;;3.90;99.90;;;;;;4974715;28;20523;-84
2023/03/08 03:07:13;;;;;;;7.17;4.90;;;4.00;99.90;;;;;;4993049;28;20503;-83
2023/03/08 03:09:41;;;;;;;9.10;5.47;;;3.90;99.90;;;;;;4976737;28;20464;-81
2023/03/08 03:12:10;;;;;;;5.33;4.47;;;3.80;99.90;;;;;;4957095;28;21039;-87
2023/03/08 03:14:40;;;;;;;7.90;4.20;;;3.60;99.90;;;;;;4955526;28;20461;-86
2023/03/08 03:17:07;;;;;;;8.07;4.83;;;3.80;99.90;;;;;;4954985;28;20506;-84
2023/03/08 03:19:33;;;;;;;7.93;5.13;;;3.80;99.90;;;;;;4989289;28;20449;-83
2023/03/08 03:22:00;;;;;;;5.63;3.57;;;3.70;99.90;;;;;;4992333;28;20456;-85
2023/03/08 03:24:27;;;;;;;4.87;3.67;;;3.50;99.90;;;;;;4980692;28;20460;-85
2023/03/08 03:26:54;;;;;;;5.67;4.50;;;3.60;99.90;;;;;;4967858;28;20491;-84
2023/03/08 03:29:21;;;;;;;5.53;4.60;;;3.70;99.90;;;;;;4965844;28;20489;-83
2023/03/08 03:31:48;;;;;;;7.50;5.33;;;3.80;99.90;;;;;;4978601;28;20468;-84
2023/03/08 03:34:15;;;;;;;8.87;5.47;;;4.00;99.90;;;;;;4954390;28;20564;-83
2023/03/08 03:36:42;;;;;;;7.80;6.10;;;3.90;99.90;;;;;;4955606;28;20995;-84
2023/03/08 03:39:09;;;;;;;8.00;5.13;;;4.00;99.90;;;;;;4931775;28;20550;-84
2023/03/08 03:41:36;;;;;;;7.60;5.10;;;4.00;99.90;;;;;;4944064;28;20459;-84
2023/03/08 03:44:03;;;;;;;5.53;4.90;;;3.90;99.90;;;;;;4944427;28;20987;-84
2023/03/08 03:46:30;;;;;;;7.33;5.10;;;3.70;99.90;;;;;;4966167;28;20484;-84
2023/03/08 03:48:57;;;;;;;8.40;4.47;;;3.80;99.90;;;;;;4966689;28;20456;-85
2023/03/08 03:51:24;;;;;;;6.30;4.87;;;3.90;99.90;;;;;;4956512;28;20463;-84
2023/03/08 03:53:50;;;;;;;5.83;4.87;;;3.80;99.90;;;;;;4973183;28;20464;-84
2023/03/08 03:56:22;;;;;;;10.20;6.47;;;3.90;99.90;;;;;;4962923;28;20457;-86
2023/03/08 03:58:50;;;;;;;7.77;5.87;;;4.00;99.90;;;;;;4970716;28;20463;-85
2023/03/08 04:01:21;;;;;;;7.00;6.30;;;4.00;99.90;;;;;;4967157;28;20461;-83
2023/03/08 04:03:48;;;;;;;10.70;7.43;;;4.00;99.90;;;;;;4971238;28;20517;-84
2023/03/08 04:06:26;;;;;;;8.80;6.97;;;4.00;99.90;;;;;;4969735;28;20467;-82
2023/03/08 04:08:58;;;;;;;9.60;6.50;;;4.00;99.90;;;;;;4986666;28;20457;-83
2023/03/08 04:11:30;;;;;;;8.80;6.40;;;3.90;99.90;;;;;;4971409;28;20499;-84
2023/03/08 04:14:00;;;;;;;10.13;7.17;;;3.90;99.90;;;;;;4956465;28;20452;-84
2023/03/08 04:16:30;;;;;;;9.03;7.17;;;3.70;99.90;;;;;;4978744;28;20568;-82
2023/03/08 04:18:59;;;;;;;8.20;5.17;;;3.60;99.90;;;;;;4970064;28;20468;-85
2023/03/08 04:21:29;;;;;;;6.93;5.40;;;3.60;99.90;;;;;;4969529;28;20460;-83
2023/03/08 04:23:59;;;;;;;7.50;5.30;;;3.50;99.90;;;;;;4964560;28;20613;-85
2023/03/08 04:26:26;;;;;;;9.20;5.87;;;3.40;99.90;;;;;;4970814;28;20519;-84
2023/03/08 04:28:57;;;;;;;9.40;6.20;;;3.40;99.90;;;;;;4952922;28;20460;-85
2023/03/08 04:31:29;;;;;;;5.67;5.10;;;3.50;99.90;;;;;;4959497;28;20511;-85
2023/03/08 04:34:09;;;;;;;7.50;6.10;;;3.70;99.90;;;;;;4966364;28;20456;-84
2023/03/08 04:36:42;;;;;;;12.63;6.47;;;3.60;99.90;;;;;;4965642;28;20535;-84
2023/03/08 04:39:09;;;;;;;7.07;5.70;;;3.80;99.90;;;;;;4958324;28;20554;-84
2023/03/08 04:41:39;;;;;;;8.20;6.83;;;3.90;99.90;;;;;;4969779;28;20836;-85
2023/03/08 04:44:07;;;;;;;8.13;6.00;;;3.90;99.90;;;;;;4965303;28;20452;-86
2023/03/08 04:46:34;;;;;;;7.33;5.87;;;4.00;99.90;;;;;;4950833;28;20489;-85
2023/03/08 04:49:08;;;;;;;11.00;6.70;;;3.90;99.90;;;;;;4955377;28;20452;-85
2023/03/08 04:51:35;;;;;;;8.57;6.53;;;3.70;99.90;;;;;;4985220;28;20468;-84
2023/03/08 04:54:04;;;;;;;6.10;5.43;;;3.70;99.90;;;;;;4976733;28;20476;-83
2023/03/08 04:56:31;;;;;;;8.87;6.13;;;3.70;99.90;;;;;;4983217;28;20484;-84
2023/03/08 04:58:58;;;;;;;9.43;6.17;;;3.60;99.90;;;;;;4979671;28;20478;-84
2023/03/08 05:01:28;;;;;;;8.23;6.30;;;3.60;99.90;;;;;;4977975;28;20534;-84
2023/03/08 05:03:56;;;;;;;10.07;5.67;;;3.50;99.90;;;;;;4958988;28;20930;-83
2023/03/08 05:06:25;;;;;;;6.17;4.67;;;3.50;99.90;;;;;;4958138;28;20901;-86
2023/03/08 05:08:53;;;;;;;7.87;4.60;;;3.40;99.90;;;;;;4969095;28;20488;-85
2023/03/08 05:11:26;;;;;;;8.23;5.20;;;3.30;99.90;;;;;;4988451;28;20452;-85
2023/03/08 05:13:55;;;;;;;7.93;5.40;;;3.30;99.90;;;;;;4962694;28;20457;-83
2023/03/08 05:16:22;;;;;;;12.90;6.90;;;3.20;99.90;;;;;;4979466;28;20540;-83
2023/03/08 05:18:53;;;;;;;12.80;7.47;;;3.20;99.90;;;;;;4976747;28;20460;-85
2023/03/08 05:21:21;;;;;;;12.00;7.57;;;3.30;99.90;;;;;;4974961;28;20460;-82
2023/03/08 05:23:48;;;;;;;18.53;8.60;;;3.40;99.90;;;;;;4985961;28;20436;-82
2023/03/08 05:26:21;;;;;;;15.80;9.53;;;3.40;99.90;;;;;;4976069;28;20436;-82
2023/03/08 05:28:48;;;;;;;12.37;9.20;;;3.30;99.90;;;;;;4958991;28;20491;-83
2023/03/08 05:31:18;;;;;;;15.30;8.80;;;3.30;99.90;;;;;;4955989;28;21017;-82
2023/03/08 05:33:48;;;;;;;17.03;8.77;;;3.40;99.90;;;;;;4978783;28;20464;-84
2023/03/08 05:36:16;;;;;;;13.70;9.07;;;3.40;99.90;;;;;;4973350;28;20459;-84
2023/03/08 05:38:46;;;;;;;12.10;8.33;;;3.30;99.90;;;;;;4950605;28;20576;-85
2023/03/08 05:41:15;;;;;;;10.50;7.90;;;3.30;99.90;;;;;;4976613;28;20516;-84
2023/03/08 05:43:45;;;;;;;12.90;8.73;;;3.30;99.90;;;;;;4954627;28;20467;-85
2023/03/08 05:46:15;;;;;;;10.53;7.10;;;3.30;99.90;;;;;;4945358;28;20471;-85
2023/03/08 05:48:43;;;;;;;11.30;6.23;;;3.40;99.90;;;;;;4958011;28;20509;-82
2023/03/08 05:51:15;;;;;;;10.07;7.80;;;3.40;99.90;;;;;;4964543;28;20449;-84
2023/03/08 05:53:46;;;;;;;11.03;7.90;;;3.30;99.90;;;;;;4965644;28;20567;-83
2023/03/08 05:56:26;;;;;;;13.43;7.70;;;3.10;99.90;;;;;;4961844;28;20461;-84
2023/03/08 06:04:54;;;;;;;12.17;7.80;;;3.10;99.90;;;;;;4911555;23;20496;-82
2023/03/08 06:07:24;;;;;;;14.30;9.40;;;3.20;99.90;;;;;;5077591;23;20495;-83
2023/03/08 06:09:51;;;;;;;15.07;8.93;;;3.20;99.90;;;;;;5013094;28;20463;-84
2023/03/08 06:12:22;;;;;;;14.33;8.97;;;3.30;99.90;;;;;;4994647;28;20446;-84
2023/03/08 06:14:53;;;;;;;11.10;7.60;;;3.40;99.90;;;;;;4995027;28;20459;-84
2023/03/08 06:17:22;;;;;;;11.17;7.03;;;3.40;99.90;;;;;;4989998;28;20483;-82
2023/03/08 06:19:52;;;;;;;13.53;8.10;;;3.40;99.90;;;;;;4993721;28;20463;-83
2023/03/08 06:22:19;;;;;;;13.43;8.53;;;3.40;99.90;;;;;;4996556;28;20665;-83
2023/03/08 06:24:51;;;;;;;10.33;8.03;;;3.40;99.90;;;;;;4991474;28;20467;-83
2023/03/08 06:27:18;;;;;;;9.43;7.00;;;3.40;99.90;;;;;;4990251;28;20501;-83
2023/03/08 06:29:47;;;;;;;13.07;8.53;;;3.30;99.90;;;;;;4989884;28;20463;-85
2023/03/08 06:32:18;;;;;;;11.73;7.67;;;3.20;99.90;;;;;;4983107;28;20473;-83
2023/03/08 06:34:46;;;;;;;11.43;6.97;;;3.40;99.90;;;;;;4979159;28;20467;-86
2023/03/08 06:37:14;;;;;;;10.73;6.60;;;3.40;99.90;;;;;;4964652;28;20599;-84
2023/03/08 06:39:44;;;;;;;9.67;7.57;;;3.30;99.90;;;;;;4976474;28;20459;-85
2023/03/08 06:42:17;;;;;;;11.47;6.83;;;3.40;99.90;;;;;;4976097;28;20495;-86
2023/03/08 06:44:49;;;;;;;7.13;5.90;;;3.40;99.90;;;;;;4999054;28;20525;-86
2023/03/08 06:47:16;;;;;;;8.93;5.93;;;3.50;99.90;;;;;;4977408;28;20486;-86
2023/03/08 06:49:46;;;;;;;8.97;5.57;;;3.50;99.90;;;;;;4993290;28;20457;-85
2023/03/08 06:52:13;;;;;;;8.50;5.97;;;3.60;99.90;;;;;;4978875;28;20475;-85
2023/03/08 06:54:42;;;;;;;7.70;5.00;;;3.50;99.90;;;;;;4984765;28;20522;-85
2023/03/08 06:57:12;;;;;;;6.20;5.07;;;3.60;99.90;;;;;;5010389;28;20493;-81
2023/03/08 06:59:39;;;;;;;7.87;5.07;;;3.50;99.90;;;;;;4983527;28;20479;-84
2023/03/08 07:02:16;;;;;;;7.33;5.47;;;3.50;99.90;;;;;;4981650;28;20570;-84
2023/03/08 07:04:50;;;;;;;5.90;4.70;;;3.40;99.90;;;;;;4996560;28;20459;-84
2023/03/08 07:07:17;;;;;;;6.50;5.50;;;3.40;99.90;;;;;;4997657;28;20493;-86
2023/03/08 07:09:56;;;;;;;9.00;5.90;;;3.50;99.90;;;;;;4980921;28;20793;-85
2023/03/08 07:12:24;;;;;;;5.10;4.43;;;3.60;99.90;;;;;;4994425;28;20643;-84
2023/03/08 07:14:52;;;;;;;8.17;5.30;;;3.40;99.90;;;;;;4982976;28;20467;-84
2023/03/08 07:17:19;;;;;;;7.00;5.27;;;3.40;99.90;;;;;;4993635;28;20464;-84
2023/03/08 07:19:51;;;;;;;6.90;5.07;;;3.30;99.90;;;;;;4999045;28;20466;-84
2023/03/08 07:22:18;;;;;;;10.00;5.73;;;3.40;99.90;;;;;;4985524;28;20462;-83
2023/03/08 07:24:47;;;;;;;7.20;5.60;;;3.60;99.90;;;;;;4980968;28;20498;-85
2023/03/08 07:27:15;;;;;;;6.53;5.40;;;3.50;99.90;;;;;;4979754;28;20467;-85
2023/03/08 07:29:44;;;;;;;6.47;5.70;;;3.60;99.90;;;;;;4982745;28;20436;-86
2023/03/08 07:32:13;;;;;;;7.53;5.30;;;3.40;99.90;;;;;;4976979;28;20448;-85
2023/03/08 07:34:42;;;;;;;7.47;5.70;;;3.40;99.90;;;;;;4992482;23;20511;-84
2023/03/08 07:37:16;;;;;;;6.10;5.30;;;3.50;99.90;;;;;;4940511;29;20466;-84
2023/03/08 07:39:45;;;;;;;8.10;6.40;;;3.60;99.90;;;;;;4937269;29;20454;-84
2023/03/08 07:44:53;;;;;;;9.23;6.00;;;3.60;99.90;;;;;;4961938;28;20519;-84
2023/03/08 07:47:20;;;;;;;8.67;5.47;;;3.80;99.90;;;;;;4964968;28;20488;-84
2023/03/08 07:52:28;;;;;;;8.90;5.40;;;3.70;99.90;;;;;;5091703;23;20490;-84
2023/03/08 07:54:55;;;;;;;6.73;6.00;;;3.80;99.90;;;;;;4972404;28;20494;-82
2023/03/08 07:57:25;;;;;;;5.07;4.00;;;3.70;99.90;;;;;;4959143;29;20504;-83
2023/03/08 07:59:54;;;;;;;7.53;5.00;;;3.60;99.90;;;;;;4959875;29;20456;-84
2023/03/08 08:02:23;;;;;;;8.60;6.03;;;3.60;99.90;;;;;;4961150;29;20445;-86
2023/03/08 08:04:50;;;;;;;7.80;6.00;;;3.60;99.90;;;;;;4975581;28;20520;-84
2023/03/08 08:12:41;;;;;;;8.20;5.80;;;3.40;99.90;;;;;;5114228;23;20502;-85
2023/03/08 08:15:15;;;;;;;9.40;6.20;;;3.70;99.90;;;;;;4955099;28;20487;-85
2023/03/08 08:17:44;;;;;;;8.37;6.03;;;3.70;99.90;;;;;;4966872;28;21035;-85
2023/03/08 08:20:14;;;;;;;8.30;6.50;;;3.80;99.90;;;;;;4966656;28;20987;-85
2023/03/08 08:22:48;;;;;;;7.80;5.87;;;3.80;99.90;;;;;;4990812;28;20479;-83
2023/03/08 08:25:15;;;;;;;7.93;5.80;;;3.70;99.90;;;;;;4971969;28;20459;-83
2023/03/08 08:27:42;;;;;;;7.97;6.57;;;3.80;99.90;;;;;;4971905;28;20495;-85
2023/03/08 08:30:13;;;;;;;9.73;6.90;;;3.70;99.90;;;;;;4986524;28;20512;-84
2023/03/08 08:32:42;;;;;;;15.63;7.17;;;3.70;99.90;;;;;;4968080;28;20466;-84
2023/03/08 08:35:10;;;;;;;9.53;8.33;;;3.80;99.90;;;;;;4991206;28;20449;-84
2023/03/08 08:37:39;;;;;;;7.03;6.33;;;3.70;99.90;;;;;;4963017;28;20472;-85
2023/03/08 08:40:07;;;;;;;8.50;5.50;;;3.70;99.90;;;;;;4965515;28;20452;-84
2023/03/08 08:42:37;;;;;;;11.27;8.60;;;4.00;99.90;;;;;;4962851;28;20535;-85
2023/03/08 08:45:05;;;;;;;6.87;5.80;;;3.90;99.90;;;;;;4969241;28;20456;-84
2023/03/08 08:47:32;;;;;;;6.00;5.20;;;4.10;99.90;;;;;;4977611;28;20975;-84
2023/03/08 08:49:59;;;;;;;10.70;5.87;;;4.10;99.90;;;;;;4974590;28;20445;-83
2023/03/08 08:52:26;;;;;;;8.63;6.50;;;4.10;99.90;;;;;;4955735;28;20472;-84
2023/03/08 08:54:53;;;;;;;7.47;6.50;;;3.90;99.90;;;;;;4977388;28;20447;-82
2023/03/08 08:57:20;;;;;;;9.03;6.13;;;4.10;99.90;;;;;;4972302;28;20555;-84
2023/03/08 08:59:49;;;;;;;10.17;6.97;;;4.10;99.90;;;;;;4969965;28;20488;-83
2023/03/08 09:02:16;;;;;;;8.37;6.80;;;4.00;99.90;;;;;;4978164;28;20448;-83
2023/03/08 09:04:45;;;;;;;7.57;6.57;;;4.10;99.90;;;;;;4960246;28;20515;-83
2023/03/08 09:07:12;;;;;;;9.33;6.63;;;4.00;99.90;;;;;;4945801;28;20479;-85
2023/03/08 09:09:39;;;;;;;9.00;6.97;;;4.00;99.90;;;;;;4954498;28;21315;-85
2023/03/08 09:12:06;;;;;;;7.63;6.13;;;4.00;99.90;;;;;;4953460;28;20468;-84
2023/03/08 09:14:34;;;;;;;11.37;6.70;;;4.00;99.90;;;;;;4966036;28;20455;-85
2023/03/08 09:17:01;;;;;;;11.30;7.90;;;4.00;99.90;;;;;;4972192;28;20472;-85
2023/03/08 09:19:28;;;;;;;11.00;6.70;;;4.00;99.90;;;;;;4974643;28;20559;-83
2023/03/08 09:21:55;;;;;;;8.57;7.67;;;4.20;99.90;;;;;;4957548;28;20467;-85
2023/03/08 09:24:22;;;;;;;9.40;6.60;;;4.20;99.90;;;;;;4956053;28;20642;-85
2023/03/08 09:26:48;;;;;;;12.23;7.37;;;4.20;99.90;;;;;;4956747;28;20572;-85
2023/03/08 09:29:15;;;;;;;9.53;7.70;;;4.30;99.90;;;;;;4977088;28;20487;-85
2023/03/08 09:31:44;;;;;;;12.00;7.90;;;4.20;99.90;;;;;;4994027;28;20475;-84
2023/03/08 09:34:14;;;;;;;12.00;8.10;;;4.30;99.90;;;;;;4980947;28;20444;-83
2023/03/08 09:36:41;;;;;;;12.90;7.90;;;4.30;99.90;;;;;;4987409;28;20475;-84
2023/03/08 09:39:12;;;;;;;8.93;7.43;;;4.30;99.90;;;;;;4983566;28;20447;-86
2023/03/08 09:41:50;;;;;;;13.70;6.67;;;4.50;99.90;;;;;;4992120;28;20468;-83
2023/03/08 09:44:42;;;;;;;9.93;8.70;;;4.50;99.90;;;;;;4986014;28;20444;-83
2023/03/08 09:47:25;;;;;;;10.57;7.43;;;4.50;99.90;;;;;;4965808;28;20563;-81
2023/03/08 09:50:00;;;;;;;11.63;8.13;;;4.50;99.90;;;;;;4973615;28;20491;-82
2023/03/08 09:52:39;;;;;;;11.70;8.57;;;4.40;99.90;;;;;;4976154;28;20462;-83
2023/03/08 09:55:29;;;;;;;14.63;8.63;;;4.40;99.90;;;;;;4958755;28;20483;-84
2023/03/08 09:58:01;;;;;;;10.13;8.10;;;4.40;99.90;;;;;;4933220;28;20484;-84
2023/03/08 10:00:33;;;;;;;10.47;8.60;;;4.60;99.90;;;;;;4961733;28;20856;-83
2023/03/08 10:03:21;;;;;;;9.37;7.30;;;4.60;99.90;;;;;;4939315;28;20456;-84
2023/03/08 10:05:59;;;;;;;11.50;8.80;;;4.60;99.90;;;;;;4941861;28;20471;-83
2023/03/08 10:08:37;;;;;;;12.40;8.10;;;4.60;99.90;;;;;;4941262;28;20491;-84
2023/03/08 10:11:31;;;;;;;11.53;8.53;;;4.50;99.90;;;;;;4953317;28;20455;-83
2023/03/08 10:14:08;;;;;;;9.53;7.67;;;4.50;99.90;;;;;;4942814;28;20456;-84
2023/03/08 10:16:42;;;;;;;13.50;8.67;;;4.50;99.90;;;;;;4958350;28;21105;-84
2023/03/08 10:19:37;;;;;;;17.13;9.07;;;4.60;99.90;;;;;;4951545;28;20478;-84
2023/03/08 10:22:15;;;;;;;10.17;8.30;;;4.60;99.90;;;;;;4940819;28;20495;-84
2023/03/08 10:24:49;;;;;;;12.53;8.90;;;4.50;99.90;;;;;;4937660;28;21027;-85
2023/03/08 10:27:22;;;;;;;11.47;8.73;;;4.50;99.90;;;;;;4948248;28;21386;-82
2023/03/08 10:29:52;;;;;;;12.33;8.37;;;4.50;99.90;;;;;;4944853;28;20476;-86
2023/03/08 10:32:20;;;;;;;11.97;8.33;;;4.40;99.90;;;;;;4947179;28;20535;-85
2023/03/08 10:34:48;;;;;;;12.40;8.70;;;4.50;99.90;;;;;;4945094;28;20574;-84
2023/03/08 10:37:15;;;;;;;12.53;9.60;;;4.70;99.90;;;;;;4944155;28;20599;-85
2023/03/08 10:39:53;;;;;;;13.10;8.03;;;4.70;99.90;;;;;;4943355;28;20464;-84
2023/03/08 10:42:23;;;;;;;14.70;7.93;;;4.70;99.90;;;;;;4943516;28;20959;-84
2023/03/08 10:44:58;;;;;;;11.87;9.50;;;4.70;99.90;;;;;;4961076;28;20573;-84
2023/03/08 10:47:29;;;;;;;11.63;8.47;;;4.90;99.90;;;;;;4942263;28;21403;-84
2023/03/08 10:50:26;;;;;;;14.07;9.37;;;5.00;99.90;;;;;;4945045;28;20576;-84
2023/03/08 10:52:53;;;;;;;13.97;8.63;;;4.90;99.90;;;;;;4963667;28;20459;-84
2023/03/08 10:55:25;;;;;;;11.93;7.70;;;5.00;99.90;;;;;;4962869;28;20500;-84
2023/03/08 10:57:55;;;;;;;11.20;7.37;;;5.10;99.90;;;;;;4964557;28;20456;-83
2023/03/08 11:00:38;;;;;;;11.50;8.37;;;5.00;99.90;;;;;;4962376;28;20464;-83
2023/03/08 11:03:13;;;;;;;10.77;8.00;;;4.90;99.90;;;;;;4945244;28;20459;-83
2023/03/08 11:06:01;;;;;;;12.00;9.17;;;5.00;99.90;;;;;;4946220;28;20455;-86
2023/03/08 11:08:36;;;;;;;12.33;8.23;;;4.90;99.90;;;;;;4943734;28;20532;-82
2023/03/08 11:11:12;;;;;;;11.00;8.80;;;5.00;99.90;;;;;;4948626;28;20562;-85
2023/03/08 11:13:41;;;;;;;12.87;8.93;;;4.90;99.90;;;;;;4962932;28;21105;-82
2023/03/08 11:16:30;;;;;;;11.57;8.50;;;4.70;99.90;;;;;;4968098;28;20449;-83
2023/03/08 11:19:07;;;;;;;11.70;9.20;;;4.80;99.90;;;;;;5009294;23;20499;-85
2023/03/08 11:30:12;;;;;;;10.20;8.03;;;5.30;99.90;;;;;;4978070;23;20508;-82
2023/03/08 11:33:01;;;;;;;10.10;8.10;;;5.60;99.90;;;;;;4950030;28;22160;-85
2023/03/08 11:35:55;;;;;;;9.90;8.10;;;5.80;99.90;;;;;;4960344;28;20548;-85
2023/03/08 11:38:33;;;;;;;11.20;8.80;;;5.80;99.90;;;;;;4973134;28;20509;-85
2023/03/08 11:41:26;;;;;;;11.23;9.50;;;5.70;99.90;;;;;;4946646;28;20516;-83
2023/03/08 11:44:41;;;;;;;9.80;7.90;;;5.60;99.90;;;;;;4945869;28;20525;-85
2023/03/08 11:47:39;;;;;;;8.53;6.80;;;5.70;99.90;;;;;;4960485;28;20844;-86
2023/03/08 11:50:28;;;;;;;9.53;7.50;;;5.70;99.90;;;;;;4966973;28;20507;-85
2023/03/08 11:53:15;;;;;;;9.33;7.07;;;5.70;99.90;;;;;;4970037;28;20439;-80
2023/03/08 11:56:09;;;;;;;8.67;7.10;;;6.00;99.90;;;;;;4970897;28;20479;-82
2023/03/08 11:58:50;;;;;;;8.40;7.50;;;6.00;99.90;;;;;;4984713;28;20437;-83
2023/03/08 12:02:12;;;;;;;10.40;7.10;;;6.00;99.90;;;;;;4973211;28;20467;-82
2023/03/08 12:05:07;;;;;;;10.13;9.07;;;5.90;99.90;;;;;;4927002;29;20435;-82
2023/03/08 12:07:49;;;;;;;7.80;6.00;;;5.90;99.90;;;;;;4982559;28;20456;-83
2023/03/08 12:10:28;;;;;;;9.03;8.10;;;6.10;99.90;;;;;;4970629;28;20516;-81
2023/03/08 12:13:10;;;;;;;7.90;7.10;;;6.20;99.90;;;;;;4963625;28;20510;-82
2023/03/08 12:15:56;;;;;;;10.20;7.40;;;6.30;99.90;;;;;;4956182;28;20451;-83
2023/03/08 12:18:46;;;;;;;9.40;7.70;;;6.40;99.90;;;;;;4954066;28;20480;-84
2023/03/08 12:21:29;;;;;;;8.57;7.33;;;6.30;99.90;;;;;;4949680;28;20460;-82
2023/03/08 12:24:11;;;;;;;9.10;6.40;;;6.40;99.90;;;;;;4953140;28;20468;-84
2023/03/08 12:26:47;;;;;;;8.80;6.80;;;6.30;99.90;;;;;;4955018;28;20468;-81
2023/03/08 12:29:54;;;;;;;8.77;7.83;;;6.50;99.90;;;;;;4925626;28;20507;-84
2023/03/08 12:32:22;;;;;;;9.77;7.30;;;6.50;99.90;;;;;;4973206;28;20443;-83
2023/03/08 12:35:39;;;;;;;8.83;7.57;;;6.50;99.90;;;;;;4953694;28;20468;-83
2023/03/08 12:38:37;;;;;;;8.20;7.40;;;6.60;99.90;;;;;;4959268;28;20475;-86
2023/03/08 12:41:42;;;;;;;8.20;7.30;;;6.60;99.90;;;;;;4956569;28;20447;-86
2023/03/08 12:44:28;;;;;;;8.33;7.30;;;6.50;99.90;;;;;;4952893;28;20493;-84
2023/03/08 12:47:02;;;;;;;8.30;7.40;;;6.40;99.90;;;;;;4949456;28;20492;-85
2023/03/08 12:49:47;;;;;;;8.87;8.00;;;6.50;99.90;;;;;;4944821;28;21023;-82
2023/03/08 12:52:37;;;;;;;7.37;6.57;;;6.50;99.90;;;;;;4973579;28;20457;-82
2023/03/08 12:55:30;;;;;;;9.10;7.60;;;6.50;99.90;;;;;;4952198;28;20467;-81
2023/03/08 12:58:24;;;;;;;9.37;7.80;;;6.50;99.90;;;;;;4965196;28;20511;-84
2023/03/08 13:01:32;;;;;;;;;;;;;;;;;;;;;
2023/03/08 13:04:32;;;;;;;7.10;5.90;;;6.60;99.90;;;;;;4977452;28;20462;-85
2023/03/08 13:11:07;;;;;;;9.33;7.53;;;6.50;99.90;;;;;;4890188;29;20448;-85
2023/03/08 13:13:52;;;;;;;10.00;7.47;;;6.40;99.90;;;;;;4961314;28;20773;-83
2023/03/08 13:16:56;;;;;;;8.33;7.10;;;6.40;99.90;;;;;;4955398;28;21087;-84
2023/03/08 13:19:31;;;;;;;8.03;7.10;;;6.40;99.90;;;;;;4958163;28;20583;-83
2023/03/08 13:22:38;;;;;;;6.97;5.80;;;6.30;99.90;;;;;;4967311;28;20460;-84
2023/03/08 13:26:02;;;;;;;7.90;7.10;;;6.40;99.90;;;;;;4956754;28;20463;-83
2023/03/08 13:29:09;;;;;;;12.73;7.60;;;6.40;99.90;;;;;;4973245;28;20540;-84
2023/03/08 13:32:07;;;;;;;9.17;6.57;;;6.50;99.90;;;;;;4973722;28;20587;-82
2023/03/08 13:35:19;;;;;;;9.00;7.33;;;6.40;99.90;;;;;;4930185;28;20436;-82
2023/03/08 13:38:20;;;;;;;8.77;7.43;;;6.40;99.90;;;;;;4926725;28;20471;-84
2023/03/08 13:41:35;;;;;;;11.00;8.50;;;6.60;99.90;;;;;;4955894;28;20519;-84
2023/03/08 13:44:19;;;;;;;8.83;7.90;;;6.70;99.90;;;;;;4952871;28;20464;-84
2023/03/08 13:47:18;;;;;;;8.70;7.50;;;6.70;99.90;;;;;;4947077;28;20491;-84
2023/03/08 13:49:55;;;;;;;8.03;7.23;;;6.60;99.90;;;;;;4958107;28;20562;-82
2023/03/08 13:53:11;;;;;;;10.23;7.93;;;6.90;99.90;;;;;;4950483;28;21368;-83
2023/03/08 13:56:18;;;;;;;7.37;6.60;;;6.70;99.90;;;;;;4942704;28;20460;-83
2023/03/08 13:59:10;;;;;;;8.90;6.87;;;6.80;99.90;;;;;;4935284;28;20454;-84
2023/03/08 14:01:49;;;;;;;18.90;8.63;;;6.90;99.90;;;;;;4934113;28;21062;-82